Time;durP1;ratioP1;P1;durP2;ratioP2;P2;SDS_P1;SDS_P2;PMS_P1;PMS_P2;Temp;Humidity;BMP_temperature;BMP_pressure;BME280_temperature;BME280_humidity;BME280_pressure;Samples;Min_cycle;Max_cycle;Signal;HPM_P1;HPM_P2
2022/02/15 00:01:34;;;;;;;9.33;5.87;;;;;;;10.14;34.59;100399.79;1756970;80;21363;-56
2022/02/15 00:04:00;;;;;;;9.68;6.10;;;;;;;10.12;34.58;100397.66;1743839;80;22573;-57
2022/02/15 00:06:27;;;;;;;9.87;5.33;;;;;;;10.17;34.46;100398.86;1746258;80;21959;-55
2022/02/15 00:08:54;;;;;;;7.83;5.35;;;;;;;10.12;34.60;100395.03;1755687;80;21603;-56
2022/02/15 00:11:20;;;;;;;8.88;6.15;;;;;;;10.12;34.59;100398.97;1759876;80;21383;-56
2022/02/15 00:13:47;;;;;;;9.60;6.60;;;;;;;10.15;34.58;100394.07;1720383;82;20950;-56
2022/02/15 00:16:14;;;;;;;9.30;6.57;;;;;;;10.08;34.74;100392.09;1750603;80;22474;-56
2022/02/15 00:18:41;;;;;;;10.25;7.15;;;;;;;10.06;34.65;100394.36;1754672;80;20882;-56
2022/02/15 00:21:08;;;;;;;11.48;7.00;;;;;;;10.09;34.70;100400.36;1759352;80;21442;-56
2022/02/15 00:23:35;;;;;;;14.13;7.90;;;;;;;10.06;34.71;100394.36;1743399;80;21542;-56
2022/02/15 00:26:01;;;;;;;10.38;7.12;;;;;;;10.00;34.78;100394.52;1748611;80;21468;-56
2022/02/15 00:28:29;;;;;;;12.33;7.42;;;;;;;9.95;34.99;100389.41;1754868;80;22622;-56
2022/02/15 00:30:55;;;;;;;10.73;7.27;;;;;;;9.90;35.00;100388.67;1754454;80;21404;-56
2022/02/15 00:33:22;;;;;;;11.60;5.50;;;;;;;9.93;35.08;100385.97;1760638;80;21478;-57
2022/02/15 00:35:49;;;;;;;13.60;7.08;;;;;;;9.95;35.06;100378.90;1748662;80;21597;-56
2022/02/15 00:38:15;;;;;;;10.27;6.70;;;;;;;9.93;35.20;100382.03;1694169;82;21445;-56
2022/02/15 00:40:42;;;;;;;12.53;7.70;;;;;;;9.93;35.20;100382.03;1766278;80;22508;-56
2022/02/15 00:43:09;;;;;;;14.00;7.58;;;;;;;9.94;35.17;100370.17;1768650;80;21071;-56
2022/02/15 00:45:36;;;;;;;10.37;6.23;;;;;;;9.99;35.15;100375.28;1762864;80;21510;-56
2022/02/15 00:48:04;;;;;;;8.50;5.95;;;;;;;10.01;35.14;100365.58;1760017;80;23878;-56
2022/02/15 00:52:49;;;;;;;7.87;5.17;;;;;;;7.36;40.91;100379.57;1775304;79;23261;-56
2022/02/15 00:55:16;;;;;;;10.05;6.15;;;;;;;9.73;35.71;100370.30;1737110;80;21524;-57
2022/02/15 00:57:44;;;;;;;12.68;6.67;;;;;;;9.90;35.28;100368.97;1742811;80;22499;-56
2022/02/15 01:00:12;;;;;;;8.55;5.50;;;;;;;9.98;35.13;100368.28;1736292;80;21504;-56
2022/02/15 01:02:39;;;;;;;10.32;5.80;;;;;;;10.00;35.04;100366.50;1726484;80;21436;-57
2022/02/15 01:05:07;;;;;;;9.78;5.33;;;;;;;10.01;34.95;100368.20;1680866;83;21596;-55
2022/02/15 01:07:33;;;;;;;;;;;;;;;10.02;34.94;100371.69;1700827;83;21339;-55
2022/02/15 01:10:01;;;;;;;11.22;5.72;;;;;;;9.93;35.00;100372.83;1680794;84;22833;-55
2022/02/15 01:12:29;;;;;;;6.35;4.85;;;;;;;9.77;35.22;100378.09;1692069;83;20887;-54
2022/02/15 01:14:56;;;;;;;8.30;5.53;;;;;;;9.54;35.59;100375.65;1689699;83;21517;-55
2022/02/15 01:17:23;;;;;;;8.30;5.37;;;;;;;9.65;35.45;100376.68;1707883;82;21542;-58
2022/02/15 01:19:50;;;;;;;8.07;5.23;;;;;;;9.68;35.44;100378.77;1682667;84;21328;-56
2022/02/15 01:22:16;;;;;;;7.97;5.47;;;;;;;9.63;35.45;100379.34;1698091;82;21503;-57
2022/02/15 01:24:43;;;;;;;9.00;5.67;;;;;;;9.66;35.40;100371.39;1694528;82;21625;-57
2022/02/15 01:27:10;;;;;;;10.55;5.37;;;;;;;9.64;35.46;100368.38;1699656;83;21462;-57
2022/02/15 01:29:37;;;;;;;7.72;4.92;;;;;;;9.65;35.47;100374.05;1699661;82;21489;-57
2022/02/15 01:32:07;;;;;;;8.30;5.33;;;;;;;9.67;35.43;100373.09;1696560;82;20890;-57
2022/02/15 01:34:33;;;;;;;9.65;5.67;;;;;;;9.69;35.31;100373.91;1703365;83;22557;-55
2022/02/15 01:37:00;;;;;;;10.30;6.25;;;;;;;9.72;35.24;100369.91;1697004;82;21379;-54
2022/02/15 01:39:28;;;;;;;9.00;5.30;;;;;;;9.74;35.28;100361.53;1692703;82;21474;-56
2022/02/15 01:41:55;;;;;;;7.22;5.42;;;;;;;9.64;35.39;100363.98;1699190;82;21599;-56
2022/02/15 01:44:23;;;;;;;9.50;5.75;;;;;;;9.61;35.33;100369.34;1698736;82;21587;-57
2022/02/15 01:46:51;;;;;;;9.38;5.37;;;;;;;9.52;35.53;100366.50;1704136;82;22852;-56
2022/02/15 01:49:19;;;;;;;10.43;6.33;;;;;;;9.49;35.56;100366.60;1696311;82;21488;-56
2022/02/15 01:51:46;;;;;;;9.18;5.30;;;;;;;9.51;35.46;100360.85;1690468;82;21511;-56
2022/02/15 01:54:13;;;;;;;11.33;6.30;;;;;;;9.49;35.54;100359.15;1695629;82;21411;-56
2022/02/15 01:56:40;;;;;;;9.48;5.90;;;;;;;9.49;35.55;100353.91;1694081;83;21605;-56
2022/02/15 01:59:08;;;;;;;8.18;5.55;;;;;;;9.50;35.54;100360.89;1695875;82;22495;-56
2022/02/15 02:01:36;;;;;;;7.90;5.55;;;;;;;9.48;35.57;100364.86;1722998;80;21567;-57
2022/02/15 02:04:05;;;;;;;11.18;5.97;;;;;;;9.49;35.52;100365.28;1705712;83;21455;-56
2022/02/15 02:06:32;;;;;;;9.58;5.58;;;;;;;9.50;35.64;100360.89;1695979;83;21466;-56
2022/02/15 02:09:00;;;;;;;10.48;5.55;;;;;;;9.50;35.66;100356.95;1691066;83;27401;-56
2022/02/15 02:11:26;;;;;;;13.50;6.08;;;;;;;9.52;35.81;100352.52;1733517;80;22486;-56
2022/02/15 02:14:01;;;;;;;11.80;6.00;;;;;;;9.62;35.92;100358.38;1688793;83;21422;-55
2022/02/15 02:16:33;;;;;;;9.03;5.72;;;;;;;9.63;35.98;100362.73;1721242;80;21466;-57
2022/02/15 02:19:11;;;;;;;10.10;5.58;;;;;;;9.65;36.01;100361.78;1730714;80;21529;-56
2022/02/15 02:21:41;;;;;;;10.58;5.65;;;;;;;9.61;36.33;100362.77;1730581;80;21554;-56
2022/02/15 02:24:09;;;;;;;10.78;6.10;;;;;;;9.70;36.26;100360.33;1696858;83;22840;-56
2022/02/15 02:26:37;;;;;;;6.90;5.40;;;;;;;9.70;36.30;100358.58;1736535;80;21504;-57
2022/02/15 02:29:05;;;;;;;8.68;5.20;;;;;;;9.70;36.34;100353.76;1726724;80;21435;-56
2022/02/15 02:31:33;;;;;;;9.80;5.47;;;;;;;9.68;36.41;100356.45;1690368;83;21423;-56
2022/02/15 02:34:05;;;;;;;7.37;5.42;;;;;;;9.79;36.22;100356.13;1733079;80;21366;-56
2022/02/15 02:36:46;;;;;;;8.23;5.60;;;;;;;9.84;36.19;100353.39;1733561;80;22803;-56
2022/02/15 02:39:15;;;;;;;8.60;5.92;;;;;;;9.89;36.04;100356.76;1734120;80;21448;-55
2022/02/15 02:41:42;;;;;;;8.15;4.92;;;;;;;9.90;35.98;100356.69;1733821;80;21474;-55
2022/02/15 02:44:09;;;;;;;8.93;4.97;;;;;;;9.88;36.13;100357.64;1716619;81;21414;-55
2022/02/15 02:46:36;;;;;;;8.40;5.37;;;;;;;9.81;36.26;100350.84;1730265;80;21502;-55
2022/02/15 02:49:03;;;;;;;6.87;5.07;;;;;;;9.81;36.24;100347.75;1743669;80;22496;-55
2022/02/15 02:51:31;;;;;;;8.73;5.33;;;;;;;9.79;36.23;100353.50;1731186;80;21504;-55
2022/02/15 02:53:58;;;;;;;6.85;4.72;;;;;;;9.74;36.42;100352.34;1728937;81;21368;-56
2022/02/15 02:56:25;;;;;;;6.70;4.62;;;;;;;9.79;36.37;100354.81;1690031;82;21427;-56
2022/02/15 02:58:52;;;;;;;13.45;5.35;;;;;;;9.80;36.44;100359.64;1684379;83;21566;-55
2022/02/15 03:01:19;;;;;;;7.30;4.53;;;;;;;9.75;36.49;100359.29;1719230;81;22464;-55
2022/02/15 03:03:46;;;;;;;8.35;4.70;;;;;;;9.83;36.41;100352.54;1725700;80;21460;-55
2022/02/15 03:06:13;;;;;;;7.22;5.10;;;;;;;9.85;36.43;100352.47;1681868;84;21439;-55
2022/02/15 03:08:41;;;;;;;10.25;5.28;;;;;;;9.89;36.38;100358.92;1689037;82;20908;-56
2022/02/15 03:11:08;;;;;;;7.00;5.40;;;;;;;9.90;36.29;100358.00;1717137;81;21483;-55
2022/02/15 03:13:41;;;;;;;8.55;5.15;;;;;;;9.87;36.42;100362.05;1692230;84;22549;-55
2022/02/15 03:16:10;;;;;;;10.63;5.15;;;;;;;9.88;36.39;100356.33;1687290;84;21506;-55
2022/02/15 03:18:37;;;;;;;6.47;4.80;;;;;;;9.87;36.35;100355.91;1685714;84;21560;-55
2022/02/15 03:21:06;;;;;;;8.50;5.10;;;;;;;9.87;36.48;100359.85;1725638;80;21498;-55
2022/02/15 03:23:33;;;;;;;8.95;5.58;;;;;;;9.78;36.48;100360.14;1726801;82;21022;-55
2022/02/15 03:26:00;;;;;;;9.05;5.08;;;;;;;9.95;36.37;100357.88;1724436;81;22467;-55
2022/02/15 03:28:28;;;;;;;8.55;4.92;;;;;;;9.90;36.41;100355.84;1730229;81;21365;-55
2022/02/15 03:30:55;;;;;;;7.43;4.63;;;;;;;9.96;36.27;100356.11;1725970;80;21456;-55
2022/02/15 03:33:23;;;;;;;8.25;5.37;;;;;;;9.95;36.32;100353.95;1728395;81;21583;-55
2022/02/15 03:35:50;;;;;;;7.60;3.85;;;;;;;9.96;36.36;100360.91;1723079;80;21360;-55
2022/02/15 03:38:18;;;;;;;7.17;5.00;;;;;;;9.96;36.33;100352.17;1717518;82;21412;-56
2022/02/15 03:43:33;;;;;;;6.78;4.80;;;;;;;9.86;36.42;100351.12;1720943;80;21499;-55
2022/02/15 03:46:00;;;;;;;8.50;5.33;;;;;;;9.84;36.43;100354.70;1729285;80;21538;-55
2022/02/15 03:48:29;;;;;;;8.33;5.40;;;;;;;9.79;36.71;100359.22;1694370;83;20866;-57
2022/02/15 03:50:56;;;;;;;7.03;4.92;;;;;;;9.69;36.75;100348.97;1680181;83;21496;-57
2022/02/15 03:53:23;;;;;;;7.53;5.08;;;;;;;9.82;36.73;100360.45;1700539;83;22760;-56
2022/02/15 03:55:51;;;;;;;8.20;5.35;;;;;;;9.68;37.00;100366.95;1702838;82;21461;-56
2022/02/15 03:58:18;;;;;;;8.13;5.17;;;;;;;9.84;36.79;100363.44;1700822;82;21351;-57
2022/02/15 04:00:45;;;;;;;7.33;5.10;;;;;;;9.91;36.50;100364.14;1736210;80;21438;-56
2022/02/15 04:03:16;;;;;;;8.78;5.20;;;;;;;9.92;36.56;100362.75;1736387;80;21518;-58
2022/02/15 04:05:44;;;;;;;9.93;5.12;;;;;;;9.90;36.47;100359.77;1724577;80;21530;-57
2022/02/15 04:08:10;;;;;;;5.90;4.87;;;;;;;9.89;36.56;100359.38;1722815;80;21478;-57
2022/02/15 04:10:38;;;;;;;8.75;5.70;;;;;;;9.88;36.52;100355.87;1737722;80;21105;-55
2022/02/15 04:13:05;;;;;;;9.10;5.12;;;;;;;9.86;36.60;100357.69;1691320;82;21893;-55
2022/02/15 04:15:32;;;;;;;9.23;5.62;;;;;;;9.88;36.55;100362.44;1733447;80;22481;-54
2022/02/15 04:17:59;;;;;;;7.22;4.97;;;;;;;9.90;36.53;100358.00;1730420;80;21388;-54
2022/02/15 04:20:27;;;;;;;;;;;;;;;9.84;36.48;100362.59;1701992;82;21451;-54
2022/02/15 04:22:53;;;;;;;8.48;4.60;;;;;;;9.80;36.65;100359.18;1677882;83;20958;-54
2022/02/15 04:25:20;;;;;;;8.20;5.42;;;;;;;9.78;36.61;100359.67;1675379;83;21376;-55
2022/02/15 04:27:47;;;;;;;8.25;4.62;;;;;;;9.85;36.47;100357.30;1681708;84;22809;-54
2022/02/15 04:30:15;;;;;;;6.87;5.00;;;;;;;9.87;36.43;100361.16;1678316;84;21432;-55
2022/02/15 04:32:43;;;;;;;15.45;9.55;;;;;;;9.87;36.35;100361.16;1680443;83;21558;-54
2022/02/15 04:35:10;;;;;;;7.72;6.33;;;;;;;9.87;36.46;100360.73;1693639;82;21140;-55
2022/02/15 04:37:37;;;;;;;10.28;6.25;;;;;;;9.85;36.49;100365.17;1687062;83;21473;-55
2022/02/15 04:40:05;;;;;;;8.83;5.20;;;;;;;9.85;36.48;100366.91;1683638;84;22797;-56
2022/02/15 04:42:33;;;;;;;6.65;4.60;;;;;;;9.88;36.41;100368.16;1678455;82;21435;-55
2022/02/15 04:44:59;;;;;;;7.97;4.92;;;;;;;9.78;36.42;100363.62;1685465;82;21424;-55
2022/02/15 04:47:28;;;;;;;6.95;4.85;;;;;;;9.84;36.20;100366.06;1694860;82;21313;-56
2022/02/15 04:49:55;;;;;;;9.45;4.95;;;;;;;9.81;36.23;100368.77;1669002;84;20939;-56
2022/02/15 04:52:22;;;;;;;7.05;4.95;;;;;;;9.77;36.24;100365.82;1727731;80;22796;-56
2022/02/15 04:54:49;;;;;;;8.78;5.70;;;;;;;9.74;36.17;100368.55;1739522;80;21392;-56
2022/02/15 04:57:16;;;;;;;8.23;5.37;;;;;;;9.70;36.27;100367.77;1704344;83;21442;-56
2022/02/15 04:59:43;;;;;;;8.10;5.50;;;;;;;9.70;36.23;100371.71;1696818;82;21099;-56
2022/02/15 05:02:12;;;;;;;8.80;5.30;;;;;;;9.72;36.18;100375.61;1693826;82;21038;-57
2022/02/15 05:04:48;;;;;;;8.13;4.80;;;;;;;9.68;36.13;100368.27;1699017;83;22554;-55
2022/02/15 05:07:20;;;;;;;;;;;;;;;9.62;36.08;100371.50;1692545;83;20960;-55
2022/02/15 05:09:47;;;;;;;7.80;5.08;;;;;;;9.60;36.14;100380.73;1704364;82;20175;-56
2022/02/15 05:12:16;;;;;;;9.65;5.55;;;;;;;9.53;36.17;100380.05;1701713;82;21506;-56
2022/02/15 05:14:43;;;;;;;6.37;4.90;;;;;;;9.56;36.12;100375.16;1707532;82;21670;-56
2022/02/15 05:17:12;;;;;;;7.92;4.83;;;;;;;9.53;36.07;100382.67;1685009;83;21549;-58
2022/02/15 05:19:42;;;;;;;8.13;3.72;;;;;;;9.46;36.20;100380.25;1696798;82;21509;-56
2022/02/15 05:22:09;;;;;;;6.85;5.33;;;;;;;9.47;36.19;100378.02;1693572;83;21371;-56
2022/02/15 05:24:43;;;;;;;9.10;5.17;;;;;;;9.52;36.15;100378.77;1695340;83;21481;-56
2022/02/15 05:27:10;;;;;;;6.65;5.03;;;;;;;9.51;36.17;100379.23;1693429;83;21570;-56
2022/02/15 05:29:53;;;;;;;8.00;5.25;;;;;;;9.62;36.08;100384.62;1691246;82;22505;-57
2022/02/15 05:32:28;;;;;;;11.35;5.80;;;;;;;9.61;36.06;100389.48;1688389;83;21446;-56
2022/02/15 05:34:56;;;;;;;12.05;6.40;;;;;;;9.59;36.14;100393.89;1697524;83;20938;-56
2022/02/15 05:37:23;;;;;;;9.90;5.72;;;;;;;9.58;36.08;100396.97;1694816;82;21483;-57
2022/02/15 05:39:50;;;;;;;;;;;;;;;9.59;36.20;100404.39;1711847;82;21549;-56
2022/02/15 05:42:22;;;;;;;8.80;5.65;;;;;;;9.64;36.32;100398.58;1692038;82;22636;-55
2022/02/15 05:44:49;;;;;;;9.78;5.47;;;;;;;9.64;36.26;100403.36;1695959;82;21418;-55
2022/02/15 05:47:15;;;;;;;7.37;5.78;;;;;;;9.74;36.37;100409.26;1696958;82;21566;-54
2022/02/15 05:52:30;;;;;;;;;;;;;;;9.86;36.43;100398.40;1678898;83;20172;-56
2022/02/15 05:54:57;;;;;;;;;;;;;;;9.93;36.53;100396.02;1665836;83;21515;-55
2022/02/15 05:57:24;;;;;;;11.65;5.42;;;;;;;9.92;36.61;100389.02;1673596;83;20794;-55
2022/02/15 05:59:52;;;;;;;7.97;5.22;;;;;;;9.92;36.42;100398.22;1666409;84;21507;-55
2022/02/15 06:02:25;;;;;;;10.80;5.60;;;;;;;10.02;36.60;100401.90;1651355;82;20946;-56
2022/02/15 06:04:56;;;;;;;8.95;5.72;;;;;;;10.06;36.58;100400.47;1673660;83;21452;-56
2022/02/15 06:07:28;;;;;;;8.28;5.92;;;;;;;10.16;36.51;100406.32;1728485;81;22499;-56
2022/02/15 06:09:57;;;;;;;8.30;5.67;;;;;;;10.21;36.54;100403.55;1723370;81;21704;-56
2022/02/15 06:12:24;;;;;;;;;;;;;;;10.23;36.53;100410.95;1719566;82;21360;-56
2022/02/15 06:14:57;;;;;;;11.10;6.00;;;;;;;10.34;36.46;100411.54;1720828;81;20436;-56
2022/02/15 06:17:24;;;;;;;8.90;6.08;;;;;;;10.36;36.37;100403.15;1695742;82;27699;-57
2022/02/15 06:19:53;;;;;;;7.70;5.85;;;;;;;10.40;36.47;100408.72;1698221;82;22595;-55
2022/02/15 06:22:21;;;;;;;12.65;6.25;;;;;;;10.48;36.38;100396.19;1723306;81;21439;-55
2022/02/15 06:24:48;;;;;;;9.13;5.53;;;;;;;10.61;36.37;100400.63;1724373;81;21442;-55
2022/02/15 06:27:23;;;;;;;9.55;6.40;;;;;;;10.76;36.22;100401.07;1694604;83;21762;-55
2022/02/15 06:29:52;;;;;;;8.63;6.30;;;;;;;10.84;36.11;100396.42;1719440;80;21454;-55
2022/02/15 06:32:20;;;;;;;10.40;6.35;;;;;;;10.87;36.18;100392.38;1720418;82;22806;-56
2022/02/15 06:34:48;;;;;;;8.40;6.03;;;;;;;10.89;36.11;100394.51;1713526;81;21431;-55
2022/02/15 06:37:16;;;;;;;8.73;5.92;;;;;;;11.03;36.11;100387.47;1691532;82;20922;-57
2022/02/15 06:39:45;;;;;;;11.15;6.00;;;;;;;11.09;36.12;100386.83;1688081;82;21554;-55
2022/02/15 06:42:12;;;;;;;11.55;5.83;;;;;;;11.17;36.08;100385.25;1723510;81;21560;-57
2022/02/15 06:44:39;;;;;;;9.00;5.90;;;;;;;11.23;36.01;100390.30;1722992;80;22580;-56
2022/02/15 06:47:06;;;;;;;11.20;6.85;;;;;;;11.45;35.87;100385.17;1720845;80;21494;-57
2022/02/15 06:49:33;;;;;;;10.15;6.03;;;;;;;11.43;35.77;100379.11;1726020;80;21684;-56
2022/02/15 06:52:14;;;;;;;9.28;5.72;;;;;;;11.66;35.69;100385.34;1735954;80;21447;-55
2022/02/15 06:54:42;;;;;;;8.03;5.70;;;;;;;11.78;35.39;100391.94;1716600;81;21487;-55
2022/02/15 06:57:09;;;;;;;5.40;3.83;;;;;;;11.87;35.50;100386.34;1690156;82;22417;-56
2022/02/15 06:59:36;;;;;;;9.93;5.33;;;;;;;11.97;35.38;100377.67;1710672;81;21496;-55
2022/02/15 07:02:04;;;;;;;7.40;5.55;;;;;;;12.11;35.23;100385.94;1692367;84;21608;-55
2022/02/15 07:04:33;;;;;;;8.78;5.50;;;;;;;12.20;35.29;100386.88;1722974;80;21475;-55
2022/02/15 07:06:59;;;;;;;8.65;5.00;;;;;;;12.39;35.30;100392.31;1720624;81;21408;-55
2022/02/15 07:09:28;;;;;;;7.03;5.35;;;;;;;12.33;35.21;100384.64;1691099;84;22449;-55
2022/02/15 07:11:56;;;;;;;9.93;5.28;;;;;;;12.58;34.96;100385.01;1710581;80;21542;-55
2022/02/15 07:14:25;;;;;;;7.17;5.00;;;;;;;13.07;34.40;100379.06;1729840;81;21613;-56
2022/02/15 07:16:53;;;;;;;8.48;5.70;;;;;;;13.94;34.13;100385.05;1696159;82;21402;-56
2022/02/15 07:19:20;;;;;;;5.62;4.62;;;;;;;14.68;33.19;100383.45;1730292;80;21436;-56
2022/02/15 07:22:00;;;;;;;6.78;4.85;;;;;;;15.36;32.69;100380.48;1681689;82;22608;-55
2022/02/15 07:24:35;;;;;;;7.53;5.53;;;;;;;16.07;32.22;100377.31;1712733;80;21593;-55
2022/02/15 07:27:08;;;;;;;6.92;5.00;;;;;;;16.25;31.86;100374.11;1713273;81;20973;-54
2022/02/15 07:29:36;;;;;;;10.25;5.80;;;;;;;16.28;31.70;100372.63;1684966;84;21561;-55
2022/02/15 07:32:24;;;;;;;6.50;5.00;;;;;;;16.26;31.59;100370.05;1684215;84;21387;-56
2022/02/15 07:34:49;;;;;;;7.03;4.85;;;;;;;16.30;31.82;100371.59;1684948;82;22520;-56
2022/02/15 07:37:16;;;;;;;7.33;5.42;;;;;;;16.23;31.81;100368.88;1725494;81;20965;-57
2022/02/15 07:39:43;;;;;;;9.05;5.72;;;;;;;16.12;31.52;100363.30;1722002;81;21054;-56
2022/02/15 07:42:10;;;;;;;6.97;4.83;;;;;;;16.02;31.38;100362.95;1721152;81;20855;-56
2022/02/15 07:44:40;;;;;;;7.47;5.20;;;;;;;15.87;31.16;100364.62;1687855;84;21508;-55
2022/02/15 07:47:07;;;;;;;6.43;4.90;;;;;;;15.87;31.15;100358.48;1692526;84;22468;-55
2022/02/15 07:49:34;;;;;;;7.22;4.85;;;;;;;15.87;30.90;100361.12;1686828;84;21442;-56
2022/02/15 07:52:01;;;;;;;5.20;4.58;;;;;;;16.15;30.58;100361.83;1680361;84;21563;-56
2022/02/15 07:54:28;;;;;;;5.87;4.47;;;;;;;16.57;29.39;100355.06;1685725;84;21595;-57
2022/02/15 07:56:54;;;;;;;8.60;5.25;;;;;;;16.67;28.30;100352.29;1689924;84;21505;-56
2022/02/15 07:59:23;;;;;;;7.10;4.78;;;;;;;17.17;28.03;100350.80;1685908;84;21478;-56
2022/02/15 08:01:49;;;;;;;7.92;5.22;;;;;;;17.78;27.37;100354.21;1684811;82;21042;-56
2022/02/15 08:04:16;;;;;;;6.25;5.05;;;;;;;18.13;27.07;100348.55;1689391;84;21317;-56
2022/02/15 08:06:45;;;;;;;7.10;5.42;;;;;;;18.44;26.48;100340.31;1727116;81;21459;-56
2022/02/15 08:09:19;;;;;;;5.20;4.22;;;;;;;18.74;26.03;100339.73;1715554;81;21501;-57
2022/02/15 08:11:43;;;;;;;6.12;4.83;;;;;;;19.14;26.10;100349.97;1723003;81;22445;-56
2022/02/15 08:14:11;;;;;;;8.85;5.45;;;;;;;19.43;25.63;100337.79;1716243;81;21400;-57
2022/02/15 08:16:38;;;;;;;6.20;4.97;;;;;;;19.70;25.67;100339.02;1732558;81;21451;-56
2022/02/15 08:19:06;;;;;;;7.30;4.87;;;;;;;20.17;25.39;100337.98;1733456;80;21416;-56
2022/02/15 08:21:33;;;;;;;6.58;4.60;;;;;;;20.68;25.36;100330.30;1722097;81;21530;-56
2022/02/15 08:24:01;;;;;;;5.25;4.10;;;;;;;20.88;25.07;100338.18;1689629;83;21652;-56
2022/02/15 08:26:31;;;;;;;6.08;5.20;;;;;;;21.11;24.98;100333.77;1726213;80;21664;-56
2022/02/15 08:28:58;;;;;;;5.58;5.00;;;;;;;21.40;25.00;100342.25;1708008;81;21344;-55
2022/02/15 08:31:25;;;;;;;6.90;4.78;;;;;;;21.71;24.80;100344.74;1722588;81;21105;-56
2022/02/15 08:33:52;;;;;;;6.90;5.22;;;;;;;22.16;24.58;100340.73;1729276;81;21526;-56
2022/02/15 08:36:19;;;;;;;8.50;5.42;;;;;;;22.61;24.27;100339.83;1720443;80;22502;-56
2022/02/15 08:38:46;;;;;;;8.00;5.20;;;;;;;22.89;23.43;100334.37;1718234;81;21569;-56
2022/02/15 08:41:14;;;;;;;6.62;4.55;;;;;;;23.14;23.58;100330.99;1723604;81;21498;-56
2022/02/15 08:43:42;;;;;;;5.35;4.58;;;;;;;23.24;23.00;100330.55;1711665;81;20895;-56
2022/02/15 08:46:08;;;;;;;7.70;5.35;;;;;;;23.19;22.44;100326.56;1690170;82;21467;-56
2022/02/15 08:48:37;;;;;;;5.30;4.58;;;;;;;23.03;22.14;100323.84;1690739;84;22695;-56
2022/02/15 08:51:07;;;;;;;6.08;4.60;;;;;;;23.18;22.72;100321.70;1725868;80;21451;-57
2022/02/15 08:53:34;;;;;;;5.25;4.42;;;;;;;23.45;22.57;100318.97;1729630;80;21152;-56
2022/02/15 08:56:02;;;;;;;6.00;4.80;;;;;;;23.57;22.34;100319.77;1728107;80;21435;-56
2022/02/15 08:58:29;;;;;;;11.48;4.25;;;;;;;23.52;21.88;100318.30;1722697;81;21364;-56
2022/02/15 09:01:00;;;;;;;6.67;4.47;;;;;;;23.25;22.20;100321.55;1723428;81;22223;-56
2022/02/15 09:03:26;;;;;;;4.92;3.95;;;;;;;23.01;22.14;100319.57;1717160;81;21423;-56
2022/02/15 09:05:54;;;;;;;6.12;4.60;;;;;;;23.13;22.26;100321.23;1726973;81;20919;-56
2022/02/15 09:08:22;;;;;;;7.42;5.65;;;;;;;22.97;22.50;100318.13;1723534;80;20936;-57
2022/02/15 09:10:48;;;;;;;5.72;5.12;;;;;;;22.83;22.53;100321.95;1723354;80;21450;-58
2022/02/15 09:13:15;;;;;;;6.25;5.35;;;;;;;22.64;22.29;100319.95;1698209;82;22506;-58
2022/02/15 09:15:43;;;;;;;5.25;4.60;;;;;;;22.09;22.55;100319.42;1727086;80;21482;-56
2022/02/15 09:18:10;;;;;;;5.70;4.33;;;;;;;21.72;23.02;100320.19;1727503;80;21431;-56
2022/02/15 09:20:38;;;;;;;4.87;4.37;;;;;;;21.64;23.29;100315.91;1685839;84;21132;-56
2022/02/15 09:23:05;;;;;;;5.58;4.40;;;;;;;21.41;23.30;100321.69;1724033;82;21455;-57
2022/02/15 09:25:31;;;;;;;6.40;4.45;;;;;;;20.96;23.35;100311.72;1725078;80;22700;-56
2022/02/15 09:27:58;;;;;;;5.78;4.33;;;;;;;20.29;23.85;100314.41;1726049;80;21404;-57
2022/02/15 09:30:26;;;;;;;5.43;4.57;;;;;;;19.93;24.47;100312.09;1713808;81;21508;-57
2022/02/15 09:32:53;;;;;;;5.92;4.15;;;;;;;19.44;24.92;100320.84;1679444;84;21477;-57
2022/02/15 09:35:20;;;;;;;5.62;4.50;;;;;;;19.01;25.77;100307.78;1691755;82;20949;-56
2022/02/15 09:37:46;;;;;;;5.70;3.92;;;;;;;18.81;25.96;100305.11;1717428;81;21510;-56
2022/02/15 09:40:13;;;;;;;6.12;4.50;;;;;;;18.51;26.19;100303.48;1719647;81;21392;-57
2022/02/15 09:42:40;;;;;;;7.28;4.70;;;;;;;18.48;26.44;100313.02;1719015;80;20966;-57
2022/02/15 09:45:09;;;;;;;7.22;5.00;;;;;;;18.49;26.78;100304.06;1721152;81;20891;-56
2022/02/15 09:47:37;;;;;;;6.10;4.50;;;;;;;18.52;26.98;100296.37;1692698;82;21629;-56
2022/02/15 09:50:06;;;;;;;5.30;4.20;;;;;;;18.36;26.90;100297.83;1692598;84;22755;-57
2022/02/15 09:52:36;;;;;;;6.17;4.80;;;;;;;18.46;27.00;100291.81;1728786;80;21027;-57
2022/02/15 09:55:04;;;;;;;8.60;3.92;;;;;;;18.45;27.18;100283.44;1736080;80;21493;-57
2022/02/15 09:57:31;;;;;;;8.35;4.45;;;;;;;18.28;26.83;100292.52;1742710;80;21008;-57
2022/02/15 09:59:59;;;;;;;;;;;;;;;18.32;27.27;100285.19;1742583;80;21575;-56
2022/02/15 10:02:28;;;;;;;5.10;4.25;;;;;;;18.21;27.13;100289.02;1730432;80;22518;-56
2022/02/15 10:04:57;;;;;;;6.33;4.58;;;;;;;17.88;27.22;100282.25;1744564;80;21426;-56
2022/02/15 10:07:25;;;;;;;10.30;5.55;;;;;;;17.82;27.31;100279.47;1691022;82;21393;-57
2022/02/15 10:09:55;;;;;;;4.92;4.20;;;;;;;18.02;27.51;100275.56;1700272;82;21476;-56
2022/02/15 10:12:24;;;;;;;5.22;4.28;;;;;;;18.12;27.32;100273.19;1687887;82;21525;-56
2022/02/15 10:14:54;;;;;;;6.92;4.45;;;;;;;18.30;27.35;100260.48;1683465;83;22594;-56
2022/02/15 10:17:24;;;;;;;5.05;4.50;;;;;;;18.42;27.68;100266.34;1700240;83;21402;-57
2022/02/15 10:19:51;;;;;;;6.15;3.85;;;;;;;18.61;27.60;100258.00;1698967;82;21351;-57
2022/02/15 10:22:20;;;;;;;6.50;3.70;;;;;;;18.54;26.94;100261.17;1703025;83;21420;-57
2022/02/15 10:24:55;;;;;;;5.42;4.17;;;;;;;18.22;26.68;100254.33;1700092;82;21510;-56
2022/02/15 10:27:35;;;;;;;4.20;3.80;;;;;;;18.32;26.54;100260.39;1692696;82;22483;-60
2022/02/15 10:30:05;;;;;;;5.47;3.70;;;;;;;18.27;27.06;100254.02;1694162;83;21494;-56
2022/02/15 10:32:32;;;;;;;4.85;3.92;;;;;;;18.10;26.62;100252.45;1695816;83;21570;-56
2022/02/15 10:35:00;;;;;;;6.10;4.12;;;;;;;18.39;26.88;100249.72;1697458;82;21527;-56
2022/02/15 10:37:32;;;;;;;4.08;3.67;;;;;;;18.47;26.54;100252.72;1696860;82;20958;-55
2022/02/15 10:40:03;;;;;;;5.85;3.98;;;;;;;18.49;26.07;100246.33;1693614;82;22732;-56
2022/02/15 10:42:31;;;;;;;5.08;3.67;;;;;;;18.41;26.21;100244.66;1688928;83;21487;-55
2022/02/15 10:45:09;;;;;;;6.03;4.35;;;;;;;18.36;26.21;100245.91;1695210;83;21018;-56
2022/02/15 10:47:38;;;;;;;8.70;4.10;;;;;;;18.48;26.34;100241.97;1693508;82;21053;-56
2022/02/15 10:50:09;;;;;;;6.72;4.28;;;;;;;18.53;26.80;100242.98;1688750;83;20986;-56
2022/02/15 10:52:36;;;;;;;5.25;3.70;;;;;;;18.80;26.83;100231.01;1709252;82;22385;-56
2022/02/15 10:55:04;;;;;;;5.27;4.20;;;;;;;18.75;27.02;100235.75;1701129;82;21446;-56
2022/02/15 10:57:32;;;;;;;5.90;4.50;;;;;;;18.87;26.87;100230.09;1740885;80;22087;-56
2022/02/15 11:00:01;;;;;;;5.00;4.03;;;;;;;18.85;27.15;100227.56;1738055;80;21435;-56
2022/02/15 11:02:30;;;;;;;12.10;8.60;;;;;;;19.01;27.10;100231.34;1713676;82;21412;-56
2022/02/15 11:05:02;;;;;;;6.03;5.17;;;;;;;19.08;26.73;100227.80;1717603;82;22690;-55
2022/02/15 11:07:32;;;;;;;6.22;5.17;;;;;;;19.35;27.03;100218.34;1732069;80;21368;-56
2022/02/15 11:10:24;;;;;;;7.40;6.12;;;;;;;19.68;26.89;100212.89;1737279;81;20979;-56
2022/02/15 11:12:55;;;;;;;6.28;4.78;;;;;;;19.61;26.42;100211.66;1729700;80;21462;-56
2022/02/15 11:15:33;;;;;;;5.15;4.37;;;;;;;19.95;26.87;100213.25;1734622;80;20961;-55
2022/02/15 11:18:05;;;;;;;5.78;4.17;;;;;;;19.92;26.52;100206.30;1732306;80;22505;-55
2022/02/15 11:20:51;;;;;;;5.50;4.30;;;;;;;19.93;26.05;100202.68;1738750;80;21435;-56
2022/02/15 11:23:20;;;;;;;5.22;4.53;;;;;;;20.14;26.63;100202.91;1726317;80;21596;-55
2022/02/15 11:26:04;;;;;;;6.72;4.50;;;;;;;20.35;25.76;100196.95;1735692;80;21533;-57
2022/02/15 11:28:31;;;;;;;6.75;5.65;;;;;;;20.42;25.66;100192.86;1711528;80;21495;-56
2022/02/15 11:31:00;;;;;;;;;;;;;;;20.58;25.63;100200.55;1732615;80;22518;-56
2022/02/15 11:33:39;;;;;;;10.10;6.87;;;;;;;20.57;24.52;100201.53;1725021;80;20428;-55
2022/02/15 11:36:15;;;;;;;6.58;4.62;;;;;;;20.51;25.01;100197.50;1732841;80;20982;-56
2022/02/15 11:38:57;;;;;;;7.40;5.78;;;;;;;20.57;25.57;100196.19;1725071;82;21524;-56
2022/02/15 11:41:25;;;;;;;9.70;5.70;;;;;;;20.83;25.74;100198.21;1720116;82;21518;-57
2022/02/15 11:43:59;;;;;;;8.10;4.85;;;;;;;20.86;24.98;100195.31;1714860;82;21503;-55